createdAt,value
2023-06-04T00:00:51.518Z,0.88
2023-06-04T00:01:54.155Z,0.75
2023-06-04T00:02:56.866Z,0.98
2023-06-04T00:03:59.634Z,0.70
2023-06-04T00:05:02.344Z,0.70
2023-06-04T00:06:04.986Z,0.60
2023-06-04T00:07:07.732Z,0.63
2023-06-04T00:08:10.329Z,1.70
2023-06-04T00:09:13.062Z,0.95
2023-06-04T00:10:15.878Z,0.50
2023-06-04T00:11:18.574Z,0.90
2023-06-04T00:12:21.275Z,0.77
2023-06-04T00:13:23.889Z,0.80
2023-06-04T00:14:26.513Z,0.50
2023-06-04T00:15:29.150Z,0.68
2023-06-04T00:16:31.781Z,0.98
2023-06-04T00:17:34.578Z,0.82
2023-06-04T00:18:37.262Z,0.50
2023-06-04T00:19:42.721Z,0.63
2023-06-04T00:20:45.322Z,0.80
2023-06-04T00:21:48.125Z,0.40
2023-06-04T00:22:50.940Z,0.60
2023-06-04T00:23:53.585Z,1.13
2023-06-04T00:24:56.306Z,1.00
2023-06-04T00:25:58.963Z,0.85
2023-06-04T00:27:01.592Z,1.13
2023-06-04T00:28:04.462Z,0.80
2023-06-04T00:29:07.087Z,0.70
2023-06-04T00:30:10.241Z,0.80
2023-06-04T00:31:14.310Z,0.70
2023-06-04T00:32:17.065Z,0.60
2023-06-04T00:33:19.924Z,1.25
2023-06-04T00:34:23.115Z,0.85
2023-06-04T00:35:25.833Z,0.50
2023-06-04T00:36:28.469Z,0.80
2023-06-04T00:37:31.518Z,0.70
2023-06-04T00:38:34.382Z,0.75
2023-06-04T00:39:37.003Z,0.93
2023-06-04T00:40:39.624Z,1.10
2023-06-04T00:41:42.224Z,0.80
2023-06-04T00:42:46.704Z,0.75
2023-06-04T00:43:57.850Z,0.65
2023-06-04T00:45:00.677Z,0.85
2023-06-04T00:46:06.943Z,1.00
2023-06-04T00:47:09.582Z,1.00
2023-06-04T00:48:12.457Z,0.95
2023-06-04T00:49:15.454Z,1.00
2023-06-04T00:50:18.149Z,0.80
2023-06-04T00:51:22.671Z,0.80
2023-06-04T00:52:26.128Z,0.80
2023-06-04T00:53:28.910Z,0.57
2023-06-04T00:54:34.242Z,0.60
2023-06-04T00:55:36.996Z,0.88
2023-06-04T00:56:40.233Z,0.60
2023-06-04T00:57:42.842Z,1.00
2023-06-04T00:58:46.624Z,0.60
2023-06-04T00:59:49.763Z,1.08
2023-06-04T01:00:58.206Z,0.90
2023-06-04T01:02:06.250Z,0.77
2023-06-04T01:03:20.577Z,0.93
2023-06-04T01:04:46.344Z,0.77
2023-06-04T01:06:22.789Z,0.80
2023-06-04T01:07:29.132Z,0.90
2023-06-04T01:08:32.674Z,1.15
2023-06-04T01:10:38.272Z,0.88
2023-06-04T01:11:42.014Z,0.95
2023-06-04T01:12:45.388Z,1.10
2023-06-04T01:13:48.564Z,0.85
2023-06-04T01:14:51.533Z,0.80
2023-06-04T01:15:54.141Z,0.80
2023-06-04T01:17:04.731Z,0.90
2023-06-04T01:18:08.615Z,0.82
2023-06-04T01:20:36.732Z,1.05
2023-06-04T01:21:40.336Z,1.08
2023-06-04T01:24:02.280Z,1.30
2023-06-04T01:25:07.214Z,1.23
2023-06-04T01:26:12.343Z,1.55
2023-06-04T01:27:17.564Z,1.73
2023-06-04T01:28:22.645Z,1.60
2023-06-04T01:29:25.747Z,1.58
2023-06-04T01:30:34.167Z,1.60
2023-06-04T01:31:37.363Z,1.52
2023-06-04T01:32:40.180Z,1.50
2023-06-04T01:33:42.905Z,1.60
2023-06-04T01:34:48.884Z,1.27
2023-06-04T01:35:51.850Z,1.42
2023-06-04T01:36:54.454Z,1.00
2023-06-04T01:37:57.419Z,1.23
2023-06-04T01:39:02.253Z,0.93
2023-06-04T01:40:06.672Z,1.73
2023-06-04T01:41:09.349Z,1.17
2023-06-04T01:42:12.271Z,1.05
2023-06-04T01:43:15.249Z,1.40
2023-06-04T01:44:17.905Z,1.35
2023-06-04T01:45:20.682Z,1.83
2023-06-04T01:46:23.832Z,1.33
2023-06-04T01:47:26.589Z,2.20
2023-06-04T01:48:29.287Z,1.83
2023-06-04T01:49:31.903Z,1.70
2023-06-04T01:50:34.756Z,1.77
2023-06-04T01:51:38.415Z,1.85
2023-06-04T01:52:42.237Z,2.20
2023-06-04T01:53:44.853Z,2.30
2023-06-04T01:54:47.503Z,1.75
2023-06-04T01:55:50.933Z,1.98
2023-06-04T01:56:53.514Z,2.53
2023-06-04T01:57:56.139Z,2.78
2023-06-04T01:58:58.804Z,3.47
2023-06-04T02:00:02.440Z,3.33
2023-06-04T02:01:05.344Z,2.75
2023-06-04T02:02:08.265Z,3.00
2023-06-04T02:03:12.237Z,3.50
2023-06-04T02:04:14.906Z,3.35
2023-06-04T02:05:18.070Z,3.58
2023-06-04T02:06:20.726Z,3.40
2023-06-04T02:07:23.330Z,3.00
2023-06-04T02:08:26.896Z,3.60
2023-06-04T02:11:34.454Z,3.05
2023-06-04T02:12:39.308Z,3.20
2023-06-04T02:13:42.034Z,3.10
2023-06-04T02:14:46.685Z,3.47
2023-06-04T02:15:49.310Z,2.83
2023-06-04T02:16:52.149Z,2.85
2023-06-04T02:18:00.739Z,2.97
2023-06-04T02:19:04.711Z,2.58
2023-06-04T02:20:11.327Z,2.45
2023-06-04T02:21:13.990Z,3.83
2023-06-04T02:22:17.236Z,2.50
2023-06-04T02:23:21.627Z,2.78
2023-06-04T02:24:24.379Z,2.80
2023-06-04T02:25:27.030Z,2.95
2023-06-04T02:26:29.724Z,2.42
2023-06-04T02:27:32.795Z,2.20
2023-06-04T02:28:35.445Z,2.72
2023-06-04T02:29:38.958Z,3.00
2023-06-04T02:30:42.188Z,2.90
2023-06-04T02:31:44.835Z,5.07
2023-06-04T02:32:51.610Z,2.83
2023-06-04T02:33:57.100Z,3.05
2023-06-04T02:34:59.734Z,2.83
2023-06-04T02:36:03.602Z,2.92
2023-06-04T02:37:07.216Z,2.88
2023-06-04T02:39:12.251Z,2.75
2023-06-04T02:40:14.989Z,2.80
2023-06-04T02:41:17.592Z,2.60
2023-06-04T02:42:20.454Z,2.60
2023-06-04T02:43:23.114Z,2.90
2023-06-04T02:44:27.602Z,2.33
2023-06-04T02:45:30.459Z,2.65
2023-06-04T02:46:33.089Z,2.50
2023-06-04T02:47:36.051Z,2.15
2023-06-04T02:48:38.685Z,2.28
2023-06-04T02:49:41.440Z,1.80
2023-06-04T02:50:44.167Z,1.98
2023-06-04T02:51:47.225Z,1.95
2023-06-04T02:52:49.870Z,1.55
2023-06-04T02:53:53.697Z,1.63
2023-06-04T02:54:56.702Z,1.80
2023-06-04T02:55:59.310Z,2.08
2023-06-04T02:57:02.046Z,1.88
2023-06-04T02:58:04.683Z,1.98
2023-06-04T02:59:07.438Z,1.70
2023-06-04T03:00:14.706Z,1.70
2023-06-04T03:01:22.538Z,2.42
2023-06-04T03:02:25.217Z,1.42
2023-06-04T03:03:28.543Z,1.75
2023-06-04T03:04:35.805Z,1.88
2023-06-04T03:05:41.134Z,1.60
2023-06-04T03:06:47.760Z,1.48
2023-06-04T03:07:50.426Z,1.38
2023-06-04T03:08:53.311Z,1.58
2023-06-04T03:09:55.940Z,1.45
2023-06-04T03:10:58.562Z,1.60
2023-06-04T03:12:05.178Z,1.90
2023-06-04T03:13:07.768Z,1.63
2023-06-04T03:14:10.363Z,1.75
2023-06-04T03:15:13.579Z,1.40
2023-06-04T03:16:16.825Z,1.27
2023-06-04T03:17:19.517Z,1.42
2023-06-04T03:18:22.319Z,1.48
2023-06-04T03:19:24.913Z,1.30
2023-06-04T03:20:27.588Z,1.30
2023-06-04T03:21:30.773Z,1.73
2023-06-04T03:22:35.358Z,1.33
2023-06-04T03:23:37.968Z,1.40
2023-06-04T03:24:41.989Z,1.42
2023-06-04T03:25:44.620Z,1.50
2023-06-04T03:26:47.223Z,1.50
2023-06-04T03:27:49.872Z,1.40
2023-06-04T03:28:52.490Z,2.78
2023-06-04T03:29:55.093Z,1.67
2023-06-04T03:30:57.892Z,1.52
2023-06-04T03:32:01.344Z,1.60
2023-06-04T03:33:04.352Z,1.33
2023-06-04T03:34:07.143Z,1.55
2023-06-04T03:35:10.180Z,1.38
2023-06-04T03:36:12.870Z,1.40
2023-06-04T03:37:15.551Z,1.02
2023-06-04T03:38:18.245Z,1.40
2023-06-04T03:39:21.032Z,1.80
2023-06-04T03:40:23.643Z,1.42
2023-06-04T03:41:27.728Z,1.75
2023-06-04T03:42:30.318Z,1.27
2023-06-04T03:43:32.923Z,1.80
2023-06-04T03:44:35.585Z,1.48
2023-06-04T03:45:38.300Z,1.63
2023-06-04T03:46:40.959Z,1.58
2023-06-04T03:47:43.733Z,1.50
2023-06-04T03:48:46.373Z,1.52
2023-06-04T03:49:48.954Z,1.55
2023-06-04T03:50:52.286Z,1.40
2023-06-04T03:51:55.288Z,1.23
2023-06-04T03:52:58.087Z,1.40
2023-06-04T03:54:00.983Z,1.60
2023-06-04T03:55:04.567Z,1.38
2023-06-04T03:57:09.842Z,1.60
2023-06-04T03:58:13.446Z,1.30
2023-06-04T04:00:18.679Z,1.30
2023-06-04T04:01:21.381Z,1.30
2023-06-04T04:02:24.123Z,1.00
2023-06-04T04:03:26.960Z,1.15
2023-06-04T04:04:29.654Z,1.30
2023-06-04T04:05:33.031Z,1.00
2023-06-04T04:06:37.072Z,1.33
2023-06-04T04:07:39.759Z,1.65
2023-06-04T04:08:43.884Z,0.80
2023-06-04T04:09:46.691Z,0.93
2023-06-04T04:10:49.399Z,1.00
2023-06-04T04:11:52.184Z,0.95
2023-06-04T04:12:56.535Z,0.95
2023-06-04T04:13:59.839Z,0.80
2023-06-04T04:15:02.470Z,0.93
2023-06-04T04:16:05.208Z,1.02
2023-06-04T04:17:07.866Z,0.75
2023-06-04T04:18:12.255Z,1.15
2023-06-04T04:19:16.004Z,0.70
2023-06-04T04:20:19.720Z,0.90
2023-06-04T04:21:22.628Z,1.27
2023-06-04T04:22:25.408Z,1.15
2023-06-04T04:23:28.971Z,0.90
2023-06-04T04:26:36.704Z,0.85
2023-06-04T04:27:42.177Z,0.80
2023-06-04T04:28:45.325Z,0.75
2023-06-04T04:29:49.046Z,1.10
2023-06-04T04:30:52.540Z,1.08
2023-06-04T04:31:59.145Z,1.73
2023-06-04T04:33:01.945Z,0.82
2023-06-04T04:34:10.074Z,0.80
2023-06-04T04:35:12.825Z,0.80
2023-06-04T04:36:15.498Z,1.00
2023-06-04T04:37:18.106Z,0.80
2023-06-04T04:38:26.785Z,1.00
2023-06-04T04:39:29.411Z,1.27
2023-06-04T04:40:32.857Z,0.73
2023-06-04T04:41:35.484Z,0.90
2023-06-04T04:42:38.331Z,0.88
2023-06-04T04:43:41.258Z,0.95
2023-06-04T04:44:44.114Z,1.00
2023-06-04T04:45:46.705Z,0.82
2023-06-04T04:46:52.600Z,1.00
2023-06-04T04:47:55.308Z,1.00
2023-06-04T04:48:57.926Z,1.00
2023-06-04T04:50:00.629Z,0.52
2023-06-04T04:51:03.501Z,0.80
2023-06-04T04:52:06.345Z,0.80
2023-06-04T04:53:08.939Z,0.82
2023-06-04T04:54:11.549Z,1.05
2023-06-04T04:55:14.579Z,0.88
2023-06-04T04:56:17.212Z,0.90
2023-06-04T04:57:19.881Z,1.08
2023-06-04T04:58:22.656Z,0.85
2023-06-04T04:59:25.317Z,0.88
2023-06-04T05:00:29.108Z,0.77
2023-06-04T05:01:31.756Z,0.70
2023-06-04T05:02:34.678Z,1.08
2023-06-04T05:03:37.412Z,0.70
2023-06-04T05:04:40.127Z,0.85
2023-06-04T05:05:42.927Z,1.00
2023-06-04T05:06:45.511Z,1.67
2023-06-04T05:07:48.445Z,0.95
2023-06-04T05:08:51.118Z,0.98
2023-06-04T05:09:53.735Z,1.73
2023-06-04T05:10:56.453Z,1.17
2023-06-04T05:11:59.388Z,0.90
2023-06-04T05:13:06.649Z,0.73
2023-06-04T05:14:09.327Z,0.88
2023-06-04T05:15:14.065Z,1.13
2023-06-04T05:16:16.751Z,0.80
2023-06-04T05:17:23.230Z,0.80
2023-06-04T05:18:30.290Z,0.80
2023-06-04T05:19:34.547Z,0.60
2023-06-04T05:20:39.133Z,0.70
2023-06-04T05:21:41.733Z,0.82
2023-06-04T05:22:47.215Z,1.02
2023-06-04T05:23:50.058Z,0.50
2023-06-04T05:24:53.195Z,0.90
2023-06-04T05:25:56.072Z,0.90
2023-06-04T05:26:58.932Z,0.70
2023-06-04T05:28:01.574Z,0.80
2023-06-04T05:29:05.838Z,0.82
2023-06-04T05:30:11.057Z,1.00
2023-06-04T05:31:14.793Z,0.95
2023-06-04T05:32:17.767Z,0.70
2023-06-04T05:33:20.432Z,1.02
2023-06-04T05:34:23.146Z,0.60
2023-06-04T05:35:25.780Z,1.08
2023-06-04T05:36:28.448Z,1.00
2023-06-04T05:37:31.153Z,1.15
2023-06-04T05:38:33.754Z,1.70
2023-06-04T05:39:37.647Z,0.85
2023-06-04T05:40:40.261Z,0.90
2023-06-04T05:41:42.833Z,1.27
2023-06-04T05:42:45.436Z,0.80
2023-06-04T05:43:48.025Z,0.80
2023-06-04T05:44:50.668Z,1.00
2023-06-04T05:45:53.358Z,1.05
2023-06-04T05:46:56.061Z,1.40
2023-06-04T05:47:59.538Z,0.60
2023-06-04T05:49:04.070Z,0.73
2023-06-04T05:50:07.581Z,0.95
2023-06-04T05:51:10.298Z,0.93
2023-06-04T05:52:12.986Z,0.80
2023-06-04T05:53:15.604Z,0.60
2023-06-04T05:54:18.195Z,0.90
2023-06-04T05:55:21.448Z,1.00
2023-06-04T05:56:24.078Z,1.30
2023-06-04T05:57:26.720Z,0.95
2023-06-04T05:58:29.333Z,0.85
2023-06-04T05:59:31.924Z,0.93
2023-06-04T06:00:34.568Z,0.60
2023-06-04T06:01:37.973Z,0.80
2023-06-04T06:02:40.867Z,0.60
2023-06-04T06:03:43.918Z,1.10
2023-06-04T06:04:46.788Z,1.30
2023-06-04T06:05:49.473Z,1.00
2023-06-04T06:06:52.143Z,0.90
2023-06-04T06:07:54.908Z,0.70
2023-06-04T06:08:57.533Z,1.50
2023-06-04T06:10:00.165Z,0.70
2023-06-04T06:11:07.804Z,1.23
2023-06-04T06:12:12.083Z,0.70
2023-06-04T06:13:14.824Z,0.80
2023-06-04T06:14:17.440Z,1.05
2023-06-04T06:15:20.131Z,1.00
2023-06-04T06:16:22.864Z,0.90
2023-06-04T06:17:25.672Z,1.10
2023-06-04T06:18:28.295Z,0.93
2023-06-04T06:19:31.298Z,0.75
2023-06-04T06:20:33.968Z,0.77
2023-06-04T06:21:36.598Z,1.00
2023-06-04T06:22:39.249Z,1.40
2023-06-04T06:23:41.956Z,1.00
2023-06-04T06:24:44.687Z,0.70
2023-06-04T06:25:47.337Z,1.10
2023-06-04T06:26:50.037Z,0.90
2023-06-04T06:27:52.990Z,0.90
2023-06-04T06:28:55.664Z,0.98
2023-06-04T06:29:59.304Z,0.80
2023-06-04T06:31:02.018Z,1.20
2023-06-04T06:32:05.251Z,0.80
2023-06-04T06:33:08.190Z,1.05
2023-06-04T06:34:11.058Z,0.90
2023-06-04T06:35:13.646Z,1.25
2023-06-04T06:36:20.353Z,0.88
2023-06-04T06:37:23.025Z,1.50
2023-06-04T06:38:25.660Z,0.65
2023-06-04T06:39:28.271Z,0.68
2023-06-04T06:40:32.113Z,0.82
2023-06-04T06:41:34.840Z,0.60
2023-06-04T06:42:37.472Z,0.93
2023-06-04T06:43:40.065Z,0.90
2023-06-04T06:44:42.656Z,0.57
2023-06-04T06:45:45.386Z,1.08
2023-06-04T06:46:50.295Z,1.00
2023-06-04T06:47:53.020Z,0.73
2023-06-04T06:48:55.762Z,0.90
2023-06-04T06:49:58.414Z,0.50
2023-06-04T06:51:01.108Z,0.82
2023-06-04T06:52:03.984Z,1.40
2023-06-04T06:53:06.833Z,0.90
2023-06-04T06:54:12.332Z,1.08
2023-06-04T06:55:15.042Z,1.10
2023-06-04T06:56:17.683Z,0.60
2023-06-04T06:57:20.264Z,0.75
2023-06-04T06:58:24.944Z,0.70
2023-06-04T06:59:27.543Z,0.70
2023-06-04T07:00:30.280Z,0.90
2023-06-04T07:01:35.097Z,0.70
2023-06-04T07:02:37.799Z,0.73
2023-06-04T07:03:41.361Z,0.90
2023-06-04T07:04:43.956Z,0.80
2023-06-04T07:05:46.566Z,1.17
2023-06-04T07:06:49.227Z,0.60
2023-06-04T07:07:51.828Z,0.80
2023-06-04T07:08:55.610Z,0.73
2023-06-04T07:09:58.426Z,0.90
2023-06-04T07:11:05.201Z,0.98
2023-06-04T07:12:08.196Z,0.98
2023-06-04T07:13:10.837Z,0.80
2023-06-04T07:14:13.442Z,0.80
2023-06-04T07:15:16.219Z,0.88
2023-06-04T07:16:19.541Z,1.23
2023-06-04T07:17:22.218Z,0.95
2023-06-04T07:18:24.800Z,0.90
2023-06-04T07:19:27.494Z,0.70
2023-06-04T07:20:30.183Z,0.90
2023-06-04T07:21:32.780Z,0.82
2023-06-04T07:22:36.779Z,0.80
2023-06-04T07:23:39.414Z,0.90
2023-06-04T07:24:42.071Z,0.82
2023-06-04T07:25:44.662Z,0.73
2023-06-04T07:26:47.328Z,0.75
2023-06-04T07:27:52.244Z,1.15
2023-06-04T07:28:54.888Z,0.70
2023-06-04T07:29:57.598Z,0.90
2023-06-04T07:31:00.259Z,0.80
2023-06-04T07:32:02.872Z,0.60
2023-06-04T07:33:05.719Z,1.02
2023-06-04T07:34:08.342Z,0.63
2023-06-04T07:35:11.166Z,0.85
2023-06-04T07:36:17.668Z,1.48
2023-06-04T07:37:20.295Z,0.85
2023-06-04T07:38:22.894Z,1.08
2023-06-04T07:39:26.676Z,0.85
2023-06-04T07:40:29.595Z,1.05
2023-06-04T07:41:32.383Z,0.80
2023-06-04T07:42:35.087Z,0.80
2023-06-04T07:43:38.636Z,0.85
2023-06-04T07:44:41.243Z,0.90
2023-06-04T07:45:43.918Z,1.08
2023-06-04T07:46:46.543Z,0.93
2023-06-04T07:47:49.326Z,0.63
2023-06-04T07:48:52.007Z,0.82
2023-06-04T07:50:02.598Z,0.88
2023-06-04T07:51:06.745Z,0.73
2023-06-04T07:52:09.763Z,0.88
2023-06-04T07:53:12.394Z,0.80
2023-06-04T07:54:15.751Z,0.90
2023-06-04T07:55:18.597Z,0.98
2023-06-04T07:56:21.305Z,0.82
2023-06-04T07:57:23.922Z,1.35
2023-06-04T07:58:26.967Z,0.88
2023-06-04T07:59:31.025Z,1.90
2023-06-04T08:00:33.757Z,1.23
2023-06-04T08:01:36.398Z,0.82
2023-06-04T08:02:39.142Z,1.00
2023-06-04T08:03:43.392Z,0.88
2023-06-04T08:04:49.129Z,0.90
2023-06-04T08:05:51.843Z,0.60
2023-06-04T08:06:54.648Z,0.90
2023-06-04T08:07:57.271Z,0.82
2023-06-04T08:08:59.867Z,0.82
2023-06-04T08:10:02.629Z,0.70
2023-06-04T08:11:05.590Z,0.60
2023-06-04T08:12:10.611Z,0.70
2023-06-04T08:13:14.025Z,0.70
2023-06-04T08:14:16.907Z,1.00
2023-06-04T08:15:19.563Z,0.85
2023-06-04T08:16:22.235Z,0.88
2023-06-04T08:17:25.139Z,0.93
2023-06-04T08:18:27.880Z,0.80
2023-06-04T08:19:30.508Z,0.93
2023-06-04T08:20:33.166Z,0.85
2023-06-04T08:21:36.404Z,0.50
2023-06-04T08:22:39.294Z,0.75
2023-06-04T08:23:41.935Z,0.80
2023-06-04T08:24:45.004Z,1.23
2023-06-04T08:25:47.784Z,0.93
2023-06-04T08:26:51.808Z,0.80
2023-06-04T08:27:54.667Z,0.60
2023-06-04T08:28:57.581Z,0.80
2023-06-04T08:30:00.356Z,1.13
2023-06-04T08:31:03.057Z,0.80
2023-06-04T08:32:06.020Z,0.95
2023-06-04T08:33:09.874Z,0.70
2023-06-04T08:34:14.556Z,0.73
2023-06-04T08:35:17.227Z,0.70
2023-06-04T08:36:19.866Z,0.90
2023-06-04T08:37:22.577Z,0.90
2023-06-04T08:38:25.389Z,0.93
2023-06-04T08:39:28.099Z,1.08
2023-06-04T08:40:30.719Z,1.42
2023-06-04T08:41:40.063Z,0.65
2023-06-04T08:42:46.490Z,0.57
2023-06-04T08:43:50.891Z,0.85
2023-06-04T08:44:54.490Z,0.88
2023-06-04T08:46:08.385Z,1.08
2023-06-04T08:47:14.569Z,0.70
2023-06-04T08:48:20.079Z,1.25
2023-06-04T08:49:24.354Z,0.60
2023-06-04T08:50:27.626Z,0.60
2023-06-04T08:51:34.291Z,0.73
2023-06-04T08:52:37.351Z,0.88
2023-06-04T08:53:40.158Z,0.80
2023-06-04T08:54:43.038Z,0.90
2023-06-04T08:55:45.672Z,0.75
2023-06-04T08:56:50.489Z,0.80
2023-06-04T08:57:54.224Z,0.80
2023-06-04T08:59:04.427Z,0.55
2023-06-04T09:00:09.386Z,0.60
2023-06-04T09:01:13.329Z,0.80
2023-06-04T09:02:19.645Z,0.82
2023-06-04T09:03:26.019Z,0.95
2023-06-04T09:04:29.328Z,0.60
2023-06-04T09:05:32.485Z,0.88
2023-06-04T09:06:35.723Z,1.13
2023-06-04T09:07:40.769Z,0.73
2023-06-04T09:08:51.159Z,0.55
2023-06-04T09:10:11.918Z,0.73
2023-06-04T09:11:17.645Z,0.98
2023-06-04T09:12:26.411Z,0.70
2023-06-04T09:13:33.597Z,0.90
2023-06-04T09:14:36.264Z,0.95
2023-06-04T09:15:38.869Z,0.70
2023-06-04T09:16:48.751Z,0.90
2023-06-04T09:17:51.401Z,0.63
2023-06-04T09:18:55.042Z,0.70
2023-06-04T09:19:57.723Z,0.90
2023-06-04T09:21:07.889Z,0.77
2023-06-04T09:22:10.670Z,0.90
2023-06-04T09:23:19.442Z,2.28
2023-06-04T09:24:24.149Z,0.70
2023-06-04T09:25:28.550Z,0.90
2023-06-04T09:26:31.569Z,0.95
2023-06-04T09:27:41.544Z,0.70
2023-06-04T09:30:00.063Z,1.13
2023-06-04T09:31:04.106Z,0.63
2023-06-04T09:32:07.009Z,0.93
2023-06-04T09:33:11.051Z,0.73
2023-06-04T09:34:13.818Z,0.60
2023-06-04T09:35:17.801Z,0.73
2023-06-04T09:36:20.429Z,0.60
2023-06-04T09:37:24.452Z,0.93
2023-06-04T09:38:37.119Z,0.70
2023-06-04T09:39:39.724Z,0.90
2023-06-04T09:40:42.850Z,0.75
2023-06-04T09:41:46.047Z,0.70
2023-06-04T09:42:56.239Z,0.73
2023-06-04T09:44:07.225Z,1.02
2023-06-04T09:45:10.618Z,1.33
2023-06-04T09:46:18.766Z,0.88
2023-06-04T09:47:21.453Z,0.85
2023-06-04T09:48:24.410Z,0.98
2023-06-04T09:49:27.489Z,1.10
2023-06-04T09:50:35.647Z,0.85
2023-06-04T09:51:50.085Z,1.13
2023-06-04T09:52:54.202Z,0.77
2023-06-04T09:53:58.350Z,0.90
2023-06-04T09:55:00.996Z,0.98
2023-06-04T09:56:05.454Z,0.95
2023-06-04T09:57:19.876Z,0.95
2023-06-04T09:58:24.850Z,0.60
2023-06-04T09:59:27.769Z,0.73
2023-06-04T10:00:30.691Z,0.68
2023-06-04T10:01:35.392Z,0.77
2023-06-04T10:02:38.311Z,0.98
2023-06-04T10:03:43.340Z,0.80
2023-06-04T10:04:56.003Z,0.82
2023-06-04T10:05:59.959Z,1.08
2023-06-04T10:07:04.730Z,0.82
2023-06-04T10:08:09.326Z,0.90
2023-06-04T10:09:15.595Z,0.63
2023-06-04T10:10:24.978Z,0.80
2023-06-04T10:11:37.841Z,0.73
2023-06-04T10:12:41.638Z,0.85
2023-06-04T10:13:54.817Z,1.02
2023-06-04T10:15:04.711Z,0.60
2023-06-04T10:16:15.388Z,0.80
2023-06-04T10:17:26.624Z,0.85
2023-06-04T10:18:30.488Z,0.80
2023-06-04T10:19:35.348Z,0.70
2023-06-04T10:20:38.278Z,0.85
2023-06-04T10:21:41.133Z,1.15
2023-06-04T10:22:44.603Z,1.00
2023-06-04T10:23:48.350Z,0.77
2023-06-04T10:25:55.429Z,0.70
2023-06-04T10:27:00.869Z,1.00
2023-06-04T10:28:04.434Z,0.82
2023-06-04T10:29:07.984Z,0.88
2023-06-04T10:30:11.617Z,0.70
2023-06-04T10:31:14.705Z,1.00
2023-06-04T10:32:18.558Z,0.75
2023-06-04T10:33:25.669Z,0.88
2023-06-04T10:34:29.050Z,0.90
2023-06-04T10:35:35.549Z,0.93
2023-06-04T10:36:45.718Z,0.93
2023-06-04T10:37:49.650Z,0.90
2023-06-04T10:38:56.070Z,0.63
2023-06-04T10:40:00.232Z,0.80
2023-06-04T10:42:18.053Z,1.75
2023-06-04T10:43:20.886Z,0.77
2023-06-04T10:44:23.593Z,0.80
2023-06-04T10:45:33.679Z,1.80
2023-06-04T10:46:43.334Z,0.98
2023-06-04T10:47:48.829Z,0.80
2023-06-04T10:48:52.816Z,1.00
2023-06-04T10:49:56.706Z,1.10
2023-06-04T10:50:59.534Z,0.70
2023-06-04T10:52:12.369Z,1.00
2023-06-04T10:53:15.085Z,0.82
2023-06-04T10:54:28.344Z,0.80
2023-06-04T10:55:32.252Z,0.90
2023-06-04T10:56:37.081Z,0.90
2023-06-04T10:57:39.717Z,0.82
2023-06-04T10:58:42.375Z,0.90
2023-06-04T10:59:57.722Z,1.02
2023-06-04T11:01:00.361Z,0.90
2023-06-04T11:02:10.313Z,1.10
2023-06-04T11:04:26.482Z,0.80
2023-06-04T11:05:40.263Z,1.10
2023-06-04T11:06:42.968Z,0.82
2023-06-04T11:07:47.853Z,1.38
2023-06-04T11:08:51.145Z,1.05
2023-06-04T11:09:54.599Z,1.00
2023-06-04T11:10:57.322Z,0.88
2023-06-04T11:12:01.327Z,1.40
2023-06-04T11:13:05.340Z,0.77
2023-06-04T11:14:19.478Z,0.80
2023-06-04T11:15:22.193Z,1.15
2023-06-04T11:16:24.857Z,1.13
2023-06-04T11:17:27.747Z,1.35
2023-06-04T11:18:30.525Z,0.90
2023-06-04T11:19:39.725Z,0.82
2023-06-04T11:20:44.042Z,1.13
2023-06-04T11:21:46.781Z,1.02
2023-06-04T11:22:57.653Z,0.82
2023-06-04T11:24:01.196Z,2.05
2023-06-04T11:25:04.552Z,0.93
2023-06-04T11:26:08.119Z,0.90
2023-06-04T11:27:20.650Z,1.05
2023-06-04T11:28:31.165Z,1.02
2023-06-04T11:29:34.583Z,1.10
2023-06-04T11:30:37.233Z,0.70
2023-06-04T11:31:46.998Z,1.20
2023-06-04T11:32:50.261Z,1.23
2023-06-04T11:33:53.007Z,1.40
2023-06-04T11:35:08.174Z,0.93
2023-06-04T11:36:11.022Z,0.90
2023-06-04T11:37:13.683Z,0.70
2023-06-04T11:38:16.437Z,1.00
2023-06-04T11:39:19.031Z,1.20
2023-06-04T11:40:21.899Z,0.90
2023-06-04T11:41:25.312Z,1.20
2023-06-04T11:42:29.408Z,0.80
2023-06-04T11:43:32.041Z,0.98
2023-06-04T11:44:35.425Z,0.95
2023-06-04T11:45:38.705Z,0.80
2023-06-04T11:46:50.143Z,1.25
2023-06-04T11:47:57.429Z,0.98
2023-06-04T11:49:00.530Z,0.82
2023-06-04T11:50:03.200Z,0.82
2023-06-04T11:51:09.962Z,0.90
2023-06-04T11:52:13.952Z,1.20
2023-06-04T11:53:16.745Z,1.00
2023-06-04T11:54:21.191Z,0.80
2023-06-04T11:55:24.320Z,2.22
2023-06-04T11:56:30.207Z,1.00
2023-06-04T11:57:33.050Z,0.80
2023-06-04T11:58:36.023Z,1.02
2023-06-04T11:59:38.799Z,0.73
2023-06-04T12:00:41.935Z,0.73
2023-06-04T12:01:45.679Z,0.93
2023-06-04T12:02:56.486Z,0.88
2023-06-04T12:03:59.218Z,0.80
2023-06-04T12:05:16.133Z,1.00
2023-06-04T12:06:21.707Z,1.00
2023-06-04T12:07:25.840Z,1.25
2023-06-04T12:08:28.441Z,1.17
2023-06-04T12:09:34.606Z,1.45
2023-06-04T12:10:45.038Z,0.90
2023-06-04T12:11:47.672Z,1.30
2023-06-04T12:12:57.473Z,1.33
2023-06-04T12:14:07.425Z,2.53
2023-06-04T12:16:16.950Z,1.42
2023-06-04T12:17:19.754Z,1.17
2023-06-04T12:18:27.349Z,1.88
2023-06-04T12:19:30.542Z,1.70
2023-06-04T12:20:37.782Z,1.70
2023-06-04T12:21:41.174Z,1.30
2023-06-04T12:22:49.960Z,1.90
2023-06-04T12:23:52.957Z,1.75
2023-06-04T12:24:57.743Z,1.65
2023-06-04T12:26:03.920Z,1.48
2023-06-04T12:27:09.829Z,1.90
2023-06-04T12:28:21.682Z,1.70
2023-06-04T12:29:24.317Z,1.80
2023-06-04T12:30:47.250Z,1.92
2023-06-04T12:31:49.957Z,1.58
2023-06-04T12:32:52.570Z,2.10
2023-06-04T12:33:55.206Z,1.90
2023-06-04T12:34:58.076Z,2.10
2023-06-04T12:36:00.715Z,2.17
2023-06-04T12:37:08.145Z,2.33
2023-06-04T12:38:11.065Z,2.65
2023-06-04T12:39:13.839Z,2.80
2023-06-04T12:40:16.544Z,2.45
2023-06-04T12:41:19.350Z,2.72
2023-06-04T12:42:22.137Z,2.70
2023-06-04T12:43:24.857Z,2.75
2023-06-04T12:44:27.570Z,2.70
2023-06-04T12:45:30.368Z,2.42
2023-06-04T12:46:33.095Z,2.97
2023-06-04T12:47:35.734Z,4.45
2023-06-04T12:48:38.422Z,3.25
2023-06-04T12:49:41.023Z,2.90
2023-06-04T12:50:43.658Z,3.15
2023-06-04T12:51:46.273Z,5.38
2023-06-04T12:52:48.866Z,3.72
2023-06-04T12:53:52.168Z,3.58
2023-06-04T12:54:54.767Z,3.40
2023-06-04T12:55:57.521Z,4.25
2023-06-04T12:57:00.704Z,4.07
2023-06-04T12:58:03.328Z,3.78
2023-06-04T12:59:05.954Z,4.15
2023-06-04T13:00:09.049Z,4.18
2023-06-04T13:01:13.054Z,4.38
2023-06-04T13:02:15.837Z,4.20
2023-06-04T13:03:18.901Z,4.43
2023-06-04T13:04:22.077Z,5.68
2023-06-04T13:05:24.706Z,4.60
2023-06-04T13:06:27.533Z,4.90
2023-06-04T13:07:30.167Z,4.50
2023-06-04T13:08:33.024Z,4.95
2023-06-04T13:09:36.647Z,5.25
2023-06-04T13:12:44.722Z,5.13
2023-06-04T13:13:47.301Z,5.10
2023-06-04T13:14:49.919Z,5.75
2023-06-04T13:15:52.588Z,5.65
2023-06-04T13:16:55.303Z,5.15
2023-06-04T13:17:57.950Z,6.18
2023-06-04T13:19:00.928Z,6.38
2023-06-04T13:20:03.554Z,6.43
2023-06-04T13:21:06.405Z,6.88
2023-06-04T13:22:10.935Z,5.55
2023-06-04T13:23:13.909Z,6.13
2023-06-04T13:24:17.182Z,7.72
2023-06-04T13:25:19.811Z,6.28
2023-06-04T13:26:23.478Z,6.20
2023-06-04T13:28:28.709Z,6.15
2023-06-04T13:29:35.152Z,5.72
2023-06-04T13:30:41.544Z,5.72
2023-06-04T13:31:44.234Z,6.65
2023-06-04T13:32:46.937Z,5.53
2023-06-04T13:33:49.560Z,6.13
2023-06-04T13:34:52.160Z,5.38
2023-06-04T13:35:54.777Z,5.75
2023-06-04T13:36:57.438Z,5.75
2023-06-04T13:38:00.172Z,5.15
2023-06-04T13:39:04.297Z,5.63
2023-06-04T13:40:08.901Z,5.18
2023-06-04T13:41:11.732Z,5.72
2023-06-04T13:42:14.360Z,7.03
2023-06-04T13:43:17.222Z,6.15
2023-06-04T13:44:20.674Z,5.30
2023-06-04T13:45:23.297Z,5.72
2023-06-04T13:46:25.944Z,4.95
2023-06-04T13:47:28.581Z,5.20
2023-06-04T13:48:31.415Z,5.43
2023-06-04T13:49:36.923Z,5.28
2023-06-04T13:50:39.790Z,5.93
2023-06-04T13:51:42.722Z,5.35
2023-06-04T13:52:45.325Z,6.90
2023-06-04T13:53:47.943Z,5.35
2023-06-04T13:54:50.532Z,5.40
2023-06-04T13:55:59.391Z,5.47
2023-06-04T13:57:08.055Z,5.40
2023-06-04T13:58:10.644Z,5.82
2023-06-04T13:59:13.488Z,5.45
2023-06-04T14:00:16.660Z,5.38
2023-06-04T14:01:19.346Z,5.80
2023-06-04T14:02:22.756Z,5.88
2023-06-04T14:03:25.554Z,5.13
2023-06-04T14:04:28.206Z,5.20
2023-06-04T14:05:31.995Z,4.93
2023-06-04T14:06:37.015Z,5.80
2023-06-04T14:07:39.947Z,5.03
2023-06-04T14:08:42.631Z,6.18
2023-06-04T14:09:45.294Z,6.00
2023-06-04T14:10:48.058Z,5.30
2023-06-04T14:11:52.156Z,5.45
2023-06-04T14:12:54.786Z,5.88
2023-06-04T14:13:57.902Z,5.68
2023-06-04T14:15:00.574Z,6.78
2023-06-04T14:16:03.231Z,6.00
2023-06-04T14:17:07.593Z,6.20
2023-06-04T14:18:10.322Z,6.25
2023-06-04T14:19:13.900Z,6.45
2023-06-04T14:21:19.156Z,6.00
2023-06-04T14:22:22.148Z,5.60
2023-06-04T14:23:24.850Z,5.88
2023-06-04T14:24:27.503Z,6.45
2023-06-04T14:25:30.148Z,5.38
2023-06-04T14:26:32.816Z,5.93
2023-06-04T14:27:37.070Z,5.57
2023-06-04T14:28:39.741Z,5.75
2023-06-04T14:29:42.354Z,6.18
2023-06-04T14:30:45.001Z,5.50
2023-06-04T14:31:47.654Z,5.93
2023-06-04T14:32:50.475Z,5.80